Metar z pełnej godziny Komunikat METAR ze strony awiacja.imgw.pl Metar G00 EPBY METAR EPBY 220600Z 27017KT 9999 OVC005 04/02 Q1023=